createdAt,value
2017-11-23T00:00:45.192Z,7.85
2017-11-23T00:01:45.188Z,7.90
2017-11-23T00:02:45.183Z,7.83
2017-11-23T00:03:45.180Z,7.81
2017-11-23T00:04:45.177Z,7.85
2017-11-23T00:05:45.175Z,7.84
2017-11-23T00:06:45.169Z,7.75
2017-11-23T00:07:45.167Z,7.80
2017-11-23T00:08:45.163Z,7.81
2017-11-23T00:09:45.160Z,7.80
2017-11-23T00:10:45.157Z,7.80
2017-11-23T00:11:45.156Z,7.80
2017-11-23T00:12:45.150Z,7.75
2017-11-23T00:13:45.147Z,7.81
2017-11-23T00:14:45.144Z,7.83
2017-11-23T00:15:45.142Z,7.80
2017-11-23T00:16:45.139Z,7.84
2017-11-23T00:17:45.142Z,7.93
2017-11-23T00:18:45.131Z,7.95
2017-11-23T00:19:45.128Z,7.95
2017-11-23T00:20:45.125Z,7.87
2017-11-23T00:21:45.121Z,7.95
2017-11-23T00:22:45.119Z,7.91
2017-11-23T00:23:45.115Z,7.91
2017-11-23T00:24:45.112Z,7.88
2017-11-23T00:25:45.107Z,7.91
2017-11-23T00:26:45.105Z,8.06
2017-11-23T00:27:45.102Z,8.06
2017-11-23T00:28:45.099Z,8.09
2017-11-23T00:29:45.095Z,8.05
2017-11-23T00:30:45.092Z,8.18
2017-11-23T00:31:45.089Z,8.03
2017-11-23T00:32:45.086Z,8.11
2017-11-23T00:33:45.132Z,8.06
2017-11-23T00:34:45.082Z,8.20
2017-11-23T00:35:45.077Z,8.06
2017-11-23T00:36:45.125Z,8.13
2017-11-23T00:37:45.068Z,8.06
2017-11-23T00:38:45.067Z,7.99
2017-11-23T00:39:45.063Z,8.13
2017-11-23T00:40:45.061Z,7.96
2017-11-23T00:41:45.056Z,8.03
2017-11-23T00:42:45.053Z,7.95
2017-11-23T00:43:45.050Z,8.02
2017-11-23T00:44:45.046Z,8.05
2017-11-23T00:45:45.051Z,8.05
2017-11-23T00:46:45.043Z,7.91
2017-11-23T00:47:45.038Z,8.01
2017-11-23T00:48:45.034Z,8.01
2017-11-23T00:49:45.032Z,8.03
2017-11-23T00:50:45.028Z,8.03
2017-11-23T00:51:45.026Z,8.05
2017-11-23T00:52:45.022Z,8.08
2017-11-23T00:53:45.017Z,8.05
2017-11-23T00:54:45.014Z,8.09
2017-11-23T00:55:45.013Z,7.95
2017-11-23T00:56:45.008Z,8.08
2017-11-23T00:57:45.006Z,7.93
2017-11-23T00:58:45.002Z,8.03
2017-11-23T00:59:44.999Z,8.06
2017-11-23T01:00:44.996Z,8.09
2017-11-23T01:01:44.993Z,8.08
2017-11-23T01:02:44.990Z,8.06
2017-11-23T01:03:44.986Z,8.02
2017-11-23T01:04:44.984Z,8.13
2017-11-23T01:05:44.979Z,8.02
2017-11-23T01:06:44.976Z,8.06
2017-11-23T01:07:44.974Z,8.05
2017-11-23T01:08:44.971Z,8.11
2017-11-23T01:09:44.968Z,8.14
2017-11-23T01:10:44.964Z,8.05
2017-11-23T01:11:44.961Z,8.08
2017-11-23T01:12:44.959Z,8.17
2017-11-23T01:13:44.955Z,8.17
2017-11-23T01:14:44.953Z,8.18
2017-11-23T01:15:44.949Z,8.21
2017-11-23T01:16:44.946Z,8.21
2017-11-23T01:17:44.941Z,8.24
2017-11-23T01:18:44.939Z,8.27
2017-11-23T01:19:44.936Z,8.27
2017-11-23T01:20:44.933Z,8.24
2017-11-23T01:21:44.929Z,8.31
2017-11-23T01:22:44.926Z,8.26
2017-11-23T01:23:44.929Z,8.23
2017-11-23T01:24:44.944Z,8.26
2017-11-23T01:25:44.918Z,8.20
2017-11-23T01:26:44.914Z,8.18
2017-11-23T01:27:44.911Z,8.16
2017-11-23T01:28:44.908Z,8.17
2017-11-23T01:29:44.910Z,8.17
2017-11-23T01:30:44.901Z,8.21
2017-11-23T01:31:44.897Z,8.17
2017-11-23T01:32:44.894Z,8.20
2017-11-23T01:33:44.893Z,8.20
2017-11-23T01:34:44.888Z,8.20
2017-11-23T01:35:44.885Z,8.16
2017-11-23T01:36:44.883Z,8.18
2017-11-23T01:37:44.879Z,8.17
2017-11-23T01:38:44.876Z,8.17
2017-11-23T01:39:44.872Z,8.18
2017-11-23T01:40:44.870Z,8.20
2017-11-23T01:41:44.866Z,8.17
2017-11-23T01:42:44.864Z,8.18
2017-11-23T01:43:44.861Z,8.24
2017-11-23T01:44:44.857Z,8.20
2017-11-23T01:45:44.854Z,8.26
2017-11-23T01:46:44.852Z,8.14
2017-11-23T01:47:44.848Z,8.34
2017-11-23T01:48:44.846Z,8.28
2017-11-23T01:49:44.892Z,8.28
2017-11-23T01:50:44.838Z,8.32
2017-11-23T01:51:44.835Z,8.24
2017-11-23T01:52:44.834Z,8.36
2017-11-23T01:53:44.828Z,8.35
2017-11-23T01:54:44.826Z,8.28
2017-11-23T01:55:44.823Z,8.28
2017-11-23T01:56:44.823Z,8.28
2017-11-23T01:57:44.867Z,8.27
2017-11-23T01:58:44.815Z,8.31
2017-11-23T01:59:44.812Z,8.32
2017-11-23T02:00:44.808Z,8.27
2017-11-23T02:01:44.807Z,8.35
2017-11-23T02:02:44.803Z,8.28
2017-11-23T02:03:44.799Z,8.26
2017-11-23T02:04:44.797Z,8.21
2017-11-23T02:05:44.793Z,8.17
2017-11-23T02:06:44.790Z,8.17
2017-11-23T02:07:44.788Z,8.13
2017-11-23T02:08:44.793Z,8.06
2017-11-23T02:09:44.782Z,8.08
2017-11-23T02:10:44.786Z,8.03
2017-11-23T02:11:44.774Z,8.14
2017-11-23T02:12:44.772Z,8.13
2017-11-23T02:13:44.770Z,8.20
2017-11-23T02:14:44.764Z,8.11
2017-11-23T02:15:44.766Z,8.18
2017-11-23T02:16:44.758Z,8.23
2017-11-23T02:17:44.755Z,8.16
2017-11-23T02:18:44.756Z,8.18
2017-11-23T02:19:44.748Z,8.21
2017-11-23T02:20:44.746Z,8.21
2017-11-23T02:21:44.742Z,8.31
2017-11-23T02:22:44.743Z,8.26
2017-11-23T02:23:44.738Z,8.26
2017-11-23T02:24:44.733Z,8.35
2017-11-23T02:25:44.736Z,8.38
2017-11-23T02:26:44.729Z,8.42
2017-11-23T02:27:44.724Z,8.41
2017-11-23T02:28:44.771Z,8.42
2017-11-23T02:29:44.717Z,8.44
2017-11-23T02:30:44.715Z,8.49
2017-11-23T02:31:44.712Z,8.49
2017-11-23T02:32:44.710Z,8.59
2017-11-23T02:33:44.706Z,8.46
2017-11-23T02:34:44.704Z,8.54
2017-11-23T02:35:44.699Z,8.38
2017-11-23T02:36:44.699Z,8.36
2017-11-23T02:37:44.692Z,8.28
2017-11-23T02:38:44.690Z,8.18
2017-11-23T02:39:44.737Z,8.14
2017-11-23T02:40:44.683Z,8.06
2017-11-23T02:41:44.680Z,7.95
2017-11-23T02:42:44.677Z,7.90
2017-11-23T02:43:44.681Z,7.93
2017-11-23T02:44:44.672Z,7.85
2017-11-23T02:45:44.668Z,7.78
2017-11-23T02:46:44.665Z,7.78
2017-11-23T02:47:44.661Z,7.81
2017-11-23T02:48:44.660Z,7.72
2017-11-23T02:49:44.654Z,7.69
2017-11-23T02:50:44.650Z,7.69
2017-11-23T02:51:44.648Z,7.74
2017-11-23T02:52:44.694Z,7.66
2017-11-23T02:53:44.639Z,7.69
2017-11-23T02:54:44.637Z,7.80
2017-11-23T02:55:44.632Z,7.80
2017-11-23T02:56:44.630Z,7.78
2017-11-23T02:57:44.626Z,7.80
2017-11-23T02:58:44.629Z,7.81
2017-11-23T02:59:44.620Z,7.85
2017-11-23T03:00:44.615Z,7.87
2017-11-23T03:01:44.611Z,7.88
2017-11-23T03:02:44.608Z,7.95
2017-11-23T03:03:44.605Z,7.88
2017-11-23T03:04:44.602Z,7.85
2017-11-23T03:05:44.598Z,7.95
2017-11-23T03:06:44.595Z,7.93
2017-11-23T03:07:44.601Z,7.90
2017-11-23T03:08:44.587Z,7.90
2017-11-23T03:09:44.584Z,7.91
2017-11-23T03:10:44.580Z,7.90
2017-11-23T03:11:44.578Z,7.85
2017-11-23T03:12:44.574Z,7.90
2017-11-23T03:13:44.571Z,7.83
2017-11-23T03:14:44.574Z,7.77
2017-11-23T03:15:44.562Z,7.66
2017-11-23T03:16:44.561Z,7.77
2017-11-23T03:17:44.607Z,7.69
2017-11-23T03:18:44.552Z,7.70
2017-11-23T03:19:44.550Z,7.74
2017-11-23T03:20:44.546Z,7.62
2017-11-23T03:21:44.542Z,7.58
2017-11-23T03:22:44.545Z,7.70
2017-11-23T03:23:44.536Z,7.74
2017-11-23T03:24:44.541Z,7.64
2017-11-23T03:25:44.631Z,7.69
2017-11-23T03:26:44.526Z,7.59
2017-11-23T03:27:44.572Z,7.67
2017-11-23T03:28:44.518Z,7.59
2017-11-23T03:29:44.514Z,7.59
2017-11-23T03:30:44.513Z,7.56
2017-11-23T03:31:44.510Z,7.47
2017-11-23T03:32:44.506Z,7.43
2017-11-23T03:33:44.500Z,7.46
2017-11-23T03:34:44.497Z,7.48
2017-11-23T03:35:44.492Z,7.44
2017-11-23T03:36:44.491Z,7.32
2017-11-23T03:37:44.489Z,7.39
2017-11-23T03:38:44.484Z,7.43
2017-11-23T03:39:44.480Z,7.43
2017-11-23T03:40:44.475Z,7.40
2017-11-23T03:41:44.472Z,7.37
2017-11-23T03:42:44.469Z,7.32
2017-11-23T03:43:44.465Z,7.37
2017-11-23T03:44:44.462Z,7.37
2017-11-23T03:45:44.460Z,7.44
2017-11-23T03:46:44.455Z,7.41
2017-11-23T03:47:44.451Z,7.46
2017-11-23T03:48:44.447Z,7.43
2017-11-23T03:49:44.443Z,7.46
2017-11-23T03:50:44.440Z,7.41
2017-11-23T03:51:44.438Z,7.41
2017-11-23T03:52:44.433Z,7.36
2017-11-23T03:53:44.457Z,7.47
2017-11-23T03:54:44.425Z,7.37
2017-11-23T03:55:44.423Z,7.41
2017-11-23T03:56:44.418Z,7.41
2017-11-23T03:57:44.414Z,7.36
2017-11-23T03:58:44.414Z,7.37
2017-11-23T03:59:44.407Z,7.37
2017-11-23T04:00:44.406Z,7.39
2017-11-23T04:01:44.400Z,7.28
2017-11-23T04:02:44.402Z,7.32
2017-11-23T04:03:44.396Z,7.33
2017-11-23T04:04:44.402Z,7.36
2017-11-23T04:05:44.390Z,7.25
2017-11-23T04:06:44.433Z,7.25
2017-11-23T04:07:44.378Z,7.25
2017-11-23T04:08:44.374Z,7.19
2017-11-23T04:09:44.389Z,7.21
2017-11-23T04:10:44.366Z,7.28
2017-11-23T04:11:44.363Z,7.26
2017-11-23T04:12:44.361Z,7.25
2017-11-23T04:13:44.357Z,7.22
2017-11-23T04:14:44.352Z,7.26
2017-11-23T04:15:44.349Z,7.25
2017-11-23T04:16:44.345Z,7.22
2017-11-23T04:17:44.340Z,7.26
2017-11-23T04:18:44.338Z,7.29
2017-11-23T04:19:44.334Z,7.26
2017-11-23T04:20:44.331Z,7.25
2017-11-23T04:21:44.331Z,7.25
2017-11-23T04:22:44.322Z,7.23
2017-11-23T04:23:44.321Z,7.18
2017-11-23T04:24:44.317Z,7.23
2017-11-23T04:25:44.361Z,7.22
2017-11-23T04:26:44.310Z,7.22
2017-11-23T04:27:44.304Z,7.21
2017-11-23T04:28:44.302Z,7.23
2017-11-23T04:29:44.297Z,7.22
2017-11-23T04:30:44.293Z,7.14
2017-11-23T04:31:44.289Z,7.15
2017-11-23T04:32:44.286Z,7.15
2017-11-23T04:33:44.282Z,7.08
2017-11-23T04:34:44.278Z,7.05
2017-11-23T04:35:44.276Z,6.97
2017-11-23T04:36:44.273Z,6.96
2017-11-23T04:37:44.267Z,7.03
2017-11-23T04:38:44.268Z,7.01
2017-11-23T04:39:44.262Z,7.01
2017-11-23T04:40:44.256Z,7.00
2017-11-23T04:41:44.253Z,6.90
2017-11-23T04:42:44.249Z,6.86
2017-11-23T04:43:44.245Z,6.89
2017-11-23T04:44:44.242Z,6.96
2017-11-23T04:45:44.237Z,6.77
2017-11-23T04:46:44.235Z,6.75
2017-11-23T04:47:44.232Z,6.68
2017-11-23T04:48:44.227Z,6.78
2017-11-23T04:49:44.222Z,6.59
2017-11-23T04:50:44.220Z,6.57
2017-11-23T04:51:44.266Z,6.59
2017-11-23T04:52:44.213Z,6.60
2017-11-23T04:53:44.208Z,6.70
2017-11-23T04:54:44.226Z,6.65
2017-11-23T04:55:44.200Z,6.71
2017-11-23T04:56:44.199Z,6.82
2017-11-23T04:57:44.192Z,6.83
2017-11-23T04:58:44.188Z,6.83
2017-11-23T04:59:44.185Z,6.95
2017-11-23T05:00:44.181Z,7.03
2017-11-23T05:01:44.177Z,6.95
2017-11-23T05:02:44.172Z,7.00
2017-11-23T05:03:44.169Z,7.00
2017-11-23T05:04:44.174Z,6.93
2017-11-23T05:05:44.160Z,6.90
2017-11-23T05:06:44.159Z,6.85
2017-11-23T05:07:44.154Z,6.83
2017-11-23T05:08:44.151Z,6.83
2017-11-23T05:09:44.145Z,6.82
2017-11-23T05:10:44.142Z,6.87
2017-11-23T05:11:44.144Z,6.82
2017-11-23T05:12:44.135Z,6.80
2017-11-23T05:13:44.132Z,6.82
2017-11-23T05:14:44.128Z,6.86
2017-11-23T05:15:44.124Z,6.75
2017-11-23T05:16:44.121Z,6.70
2017-11-23T05:17:44.122Z,6.64
2017-11-23T05:18:44.112Z,6.56
2017-11-23T05:19:44.108Z,6.59
2017-11-23T05:20:44.106Z,6.60
2017-11-23T05:21:44.101Z,6.64
2017-11-23T05:22:44.096Z,6.62
2017-11-23T05:23:44.092Z,6.56
2017-11-23T05:24:44.090Z,6.64
2017-11-23T05:25:44.083Z,6.62
2017-11-23T05:26:44.081Z,6.59
2017-11-23T05:27:44.079Z,6.54
2017-11-23T05:28:44.074Z,6.56
2017-11-23T05:29:44.071Z,6.44
2017-11-23T05:30:44.115Z,6.46
2017-11-23T05:31:44.061Z,6.57
2017-11-23T05:32:44.057Z,6.47
2017-11-23T05:33:44.055Z,6.49
2017-11-23T05:34:44.048Z,6.43
2017-11-23T05:35:44.045Z,6.47
2017-11-23T05:36:44.041Z,6.47
2017-11-23T05:37:44.037Z,6.52
2017-11-23T05:38:44.033Z,6.59
2017-11-23T05:39:44.031Z,6.64
2017-11-23T05:40:44.026Z,6.65
2017-11-23T05:41:44.070Z,6.71
2017-11-23T05:42:44.020Z,6.68
2017-11-23T05:43:44.015Z,6.72
2017-11-23T05:44:44.011Z,6.71
2017-11-23T05:45:44.007Z,6.75
2017-11-23T05:46:44.002Z,6.68
2017-11-23T05:47:43.998Z,6.71
2017-11-23T05:48:43.994Z,6.75
2017-11-23T05:49:43.990Z,6.67
2017-11-23T05:50:44.036Z,6.60
2017-11-23T05:51:43.983Z,6.59
2017-11-23T05:52:43.979Z,6.54
2017-11-23T05:53:43.980Z,6.39
2017-11-23T05:54:43.970Z,6.31
2017-11-23T05:55:43.966Z,6.22
2017-11-23T05:56:43.962Z,6.17
2017-11-23T05:57:43.958Z,6.10
2017-11-23T05:58:43.953Z,6.07
2017-11-23T05:59:43.951Z,6.05
2017-11-23T06:00:43.945Z,6.06
2017-11-23T06:01:43.941Z,6.07
2017-11-23T06:02:43.936Z,6.06
2017-11-23T06:03:43.982Z,5.98
2017-11-23T06:04:43.928Z,5.94
2017-11-23T06:05:43.973Z,5.94
2017-11-23T06:06:43.922Z,5.94
2017-11-23T06:07:43.915Z,5.99
2017-11-23T06:08:43.911Z,6.05
2017-11-23T06:09:43.909Z,6.12
2017-11-23T06:10:43.909Z,6.02
2017-11-23T06:11:43.897Z,5.97
2017-11-23T06:12:43.894Z,6.07
2017-11-23T06:13:43.888Z,6.09
2017-11-23T06:14:43.885Z,6.16
2017-11-23T06:15:43.882Z,6.26
2017-11-23T06:16:43.877Z,6.12
2017-11-23T06:17:43.874Z,5.99
2017-11-23T06:18:43.868Z,5.98
2017-11-23T06:19:43.864Z,5.98
2017-11-23T06:20:43.859Z,6.02
2017-11-23T06:21:43.853Z,6.05
2017-11-23T06:22:43.850Z,5.92
2017-11-23T06:23:43.846Z,5.88
2017-11-23T06:24:43.842Z,5.91
2017-11-23T06:25:43.837Z,5.99
2017-11-23T06:26:43.835Z,6.05
2017-11-23T06:27:43.829Z,6.10
2017-11-23T06:28:43.826Z,6.19
2017-11-23T06:29:43.820Z,6.10
2017-11-23T06:30:43.816Z,6.19
2017-11-23T06:31:43.811Z,6.20
2017-11-23T06:32:43.807Z,6.35
2017-11-23T06:33:43.803Z,6.39
2017-11-23T06:34:43.798Z,6.50
2017-11-23T06:35:43.795Z,6.49
2017-11-23T06:36:43.790Z,6.59
2017-11-23T06:37:43.786Z,6.62
2017-11-23T06:38:43.782Z,6.70
2017-11-23T06:39:43.778Z,6.67
2017-11-23T06:40:43.792Z,6.47
2017-11-23T06:41:43.785Z,6.46
2017-11-23T06:42:43.785Z,6.44
2017-11-23T06:43:43.765Z,6.22
2017-11-23T06:44:43.794Z,6.22
2017-11-23T06:45:43.753Z,6.25
2017-11-23T06:46:43.749Z,6.22
2017-11-23T06:47:43.744Z,6.34
2017-11-23T06:48:43.741Z,6.20
2017-11-23T06:49:43.736Z,6.32
2017-11-23T06:50:43.732Z,6.32
2017-11-23T06:51:43.728Z,6.32
2017-11-23T06:52:43.725Z,6.36
2017-11-23T06:53:43.719Z,6.32
2017-11-23T06:54:43.715Z,6.29
2017-11-23T06:55:43.712Z,6.22
2017-11-23T06:56:43.708Z,6.20
2017-11-23T06:57:43.703Z,6.26
2017-11-23T06:58:43.700Z,6.13
2017-11-23T06:59:43.696Z,6.12
2017-11-23T07:00:43.743Z,5.99
2017-11-23T07:01:43.687Z,6.02
2017-11-23T07:02:43.743Z,5.94
2017-11-23T07:03:43.682Z,5.99
2017-11-23T07:04:43.676Z,5.87
2017-11-23T07:05:43.670Z,5.77
2017-11-23T07:06:43.668Z,5.69
2017-11-23T07:07:43.664Z,5.81
2017-11-23T07:08:43.660Z,6.05
2017-11-23T07:09:43.662Z,6.35
2017-11-23T07:10:43.651Z,6.57
2017-11-23T07:11:43.697Z,6.71
2017-11-23T07:12:43.645Z,6.83
2017-11-23T07:13:43.641Z,6.96
2017-11-23T07:14:43.636Z,7.19
2017-11-23T07:15:43.636Z,7.59
2017-11-23T07:16:43.632Z,7.87
2017-11-23T07:17:43.629Z,8.20
2017-11-23T07:18:43.627Z,8.60
2017-11-23T07:19:43.629Z,8.79
2017-11-23T07:20:43.622Z,9.00
2017-11-23T07:21:43.620Z,9.13
2017-11-23T07:22:43.623Z,9.39
2017-11-23T07:23:43.621Z,9.59
2017-11-23T07:24:43.621Z,9.62
2017-11-23T07:25:43.621Z,9.73
2017-11-23T07:26:43.621Z,9.94
2017-11-23T07:27:43.623Z,9.99
2017-11-23T07:28:43.627Z,10.18
2017-11-23T07:29:43.626Z,10.10
2017-11-23T07:30:43.624Z,10.09
2017-11-23T07:31:43.624Z,10.07
2017-11-23T07:32:43.626Z,10.21
2017-11-23T07:33:43.625Z,10.07
2017-11-23T07:34:43.630Z,10.13
2017-11-23T07:35:43.628Z,10.17
2017-11-23T07:36:43.630Z,10.38
2017-11-23T07:37:43.629Z,10.67
2017-11-23T07:38:43.632Z,10.58
2017-11-23T07:39:43.631Z,10.86
2017-11-23T07:40:43.632Z,11.07
2017-11-23T07:41:43.632Z,11.33
2017-11-23T07:42:43.685Z,11.51
2017-11-23T07:43:43.636Z,11.35
2017-11-23T07:44:43.639Z,11.08
2017-11-23T07:45:43.639Z,11.02
2017-11-23T07:46:43.641Z,10.92
2017-11-23T07:47:43.642Z,10.86
2017-11-23T07:48:43.646Z,10.61
2017-11-23T07:49:43.648Z,10.24
2017-11-23T07:50:43.650Z,10.02
2017-11-23T07:51:43.652Z,9.92
2017-11-23T07:52:43.657Z,9.87
2017-11-23T07:53:43.658Z,9.67
2017-11-23T07:54:43.659Z,9.70
2017-11-23T07:55:43.662Z,9.62
2017-11-23T07:56:43.664Z,9.59
2017-11-23T07:57:43.667Z,9.67
2017-11-23T07:58:43.667Z,9.77
2017-11-23T07:59:43.670Z,9.95
2017-11-23T08:00:43.672Z,9.97
2017-11-23T08:01:43.672Z,9.85
2017-11-23T08:02:43.675Z,9.63
2017-11-23T08:03:43.675Z,9.44
2017-11-23T08:04:43.677Z,8.99
2017-11-23T08:05:43.678Z,8.64
2017-11-23T08:06:43.679Z,8.31
2017-11-23T08:07:43.680Z,8.18
2017-11-23T08:08:43.682Z,7.93
2017-11-23T08:09:43.688Z,7.91
2017-11-23T08:10:43.682Z,8.21
2017-11-23T08:11:43.682Z,8.46
2017-11-23T08:12:43.682Z,8.64
2017-11-23T08:13:43.682Z,8.78
2017-11-23T08:14:43.681Z,8.77
2017-11-23T08:15:43.682Z,9.09
2017-11-23T08:16:43.683Z,9.24
2017-11-23T08:17:43.683Z,9.48
2017-11-23T08:18:43.684Z,9.59
2017-11-23T08:19:43.691Z,9.73
2017-11-23T08:20:43.685Z,9.64
2017-11-23T08:21:43.686Z,9.40
2017-11-23T08:22:43.686Z,9.27
2017-11-23T08:23:43.688Z,9.08
2017-11-23T08:24:43.687Z,9.02
2017-11-23T08:25:43.689Z,8.79
2017-11-23T08:26:43.689Z,8.79
2017-11-23T08:27:43.687Z,8.75
2017-11-23T08:28:43.689Z,8.74
2017-11-23T08:29:43.688Z,8.84
2017-11-23T08:30:43.688Z,9.03
2017-11-23T08:31:43.688Z,9.18
2017-11-23T08:32:43.696Z,9.18
2017-11-23T08:33:43.689Z,9.21
2017-11-23T08:34:43.706Z,9.31
2017-11-23T08:35:43.688Z,9.34
2017-11-23T08:36:43.688Z,9.44
2017-11-23T08:37:43.688Z,9.33
2017-11-23T08:38:43.686Z,9.30
2017-11-23T08:39:43.695Z,9.36
2017-11-23T08:40:43.686Z,9.36
2017-11-23T08:41:43.734Z,9.48
2017-11-23T08:42:43.684Z,9.51
2017-11-23T08:43:43.690Z,9.48
2017-11-23T08:44:43.685Z,9.58
2017-11-23T08:45:43.683Z,9.66
2017-11-23T08:46:43.681Z,9.77
2017-11-23T08:47:43.681Z,9.84
2017-11-23T08:48:43.681Z,9.95
2017-11-23T08:49:43.680Z,10.15
2017-11-23T08:50:43.688Z,10.38
2017-11-23T08:51:43.729Z,10.59
2017-11-23T08:52:43.680Z,10.84
2017-11-23T08:53:43.679Z,10.90
2017-11-23T08:54:43.679Z,10.86
2017-11-23T08:55:43.686Z,10.71
2017-11-23T08:56:43.678Z,10.62
2017-11-23T08:57:43.680Z,10.68
2017-11-23T08:58:43.681Z,10.68
2017-11-23T08:59:43.680Z,10.68
2017-11-23T09:00:43.679Z,10.57
2017-11-23T09:01:43.684Z,10.53
2017-11-23T09:02:43.678Z,10.75
2017-11-23T09:03:43.677Z,10.80
2017-11-23T09:04:43.678Z,10.90
2017-11-23T09:05:43.676Z,11.02
2017-11-23T09:06:43.676Z,11.10
2017-11-23T09:07:43.677Z,11.16
2017-11-23T09:08:43.678Z,11.38
2017-11-23T09:09:43.677Z,11.55
2017-11-23T09:10:43.677Z,11.44
2017-11-23T09:11:43.677Z,11.52
2017-11-23T09:12:43.679Z,11.40
2017-11-23T09:13:43.678Z,11.48
2017-11-23T09:14:43.680Z,11.53
2017-11-23T09:15:43.680Z,11.58
2017-11-23T09:16:43.682Z,11.60
2017-11-23T09:17:43.680Z,12.08
2017-11-23T09:18:43.680Z,12.26
2017-11-23T09:19:43.683Z,12.40
2017-11-23T09:20:43.682Z,12.37
2017-11-23T09:21:43.682Z,12.26
2017-11-23T09:22:43.682Z,12.14
2017-11-23T09:23:43.684Z,12.11
2017-11-23T09:24:43.683Z,12.18
2017-11-23T09:25:43.686Z,12.40
2017-11-23T09:26:43.686Z,12.70
2017-11-23T09:27:43.685Z,13.13
2017-11-23T09:28:43.686Z,13.37
2017-11-23T09:29:43.688Z,13.45
2017-11-23T09:30:43.694Z,13.64
2017-11-23T09:31:43.698Z,13.57
2017-11-23T09:32:43.740Z,13.55
2017-11-23T09:33:43.744Z,13.86
2017-11-23T09:34:43.694Z,14.15
2017-11-23T09:35:43.696Z,14.25
2017-11-23T09:36:43.698Z,14.34
2017-11-23T09:37:43.700Z,14.36
2017-11-23T09:38:43.702Z,14.33
2017-11-23T09:39:43.705Z,14.43
2017-11-23T09:40:43.707Z,14.31
2017-11-23T09:41:43.709Z,14.41
2017-11-23T09:42:43.714Z,14.68
2017-11-23T09:43:43.715Z,14.53
2017-11-23T09:44:43.719Z,14.74
2017-11-23T09:45:43.720Z,15.00
2017-11-23T09:46:43.726Z,15.30
2017-11-23T09:47:43.728Z,15.62
2017-11-23T09:48:43.730Z,15.66
2017-11-23T09:49:43.735Z,16.00
2017-11-23T09:50:43.739Z,16.24
2017-11-23T09:51:43.743Z,16.09
2017-11-23T09:52:43.746Z,15.84
2017-11-23T09:53:43.751Z,15.39
2017-11-23T09:54:43.755Z,15.45
2017-11-23T09:55:43.759Z,15.11
2017-11-23T09:56:43.763Z,15.08
2017-11-23T09:57:43.765Z,15.41
2017-11-23T09:58:43.769Z,15.69
2017-11-23T09:59:43.774Z,15.91
2017-11-23T10:00:43.780Z,15.98
2017-11-23T10:01:43.782Z,16.05
2017-11-23T10:02:43.786Z,16.46
2017-11-23T10:03:43.795Z,16.72
2017-11-23T10:04:43.812Z,16.80
2017-11-23T10:05:43.800Z,16.72
2017-11-23T10:06:43.809Z,16.68
2017-11-23T10:07:43.811Z,16.69
2017-11-23T10:08:43.817Z,16.86
2017-11-23T10:09:43.822Z,17.12
2017-11-23T10:10:43.828Z,17.37
2017-11-23T10:11:43.838Z,17.34
2017-11-23T10:12:43.839Z,17.54
2017-11-23T10:13:43.845Z,17.59
2017-11-23T10:14:43.873Z,17.75
2017-11-23T10:15:43.859Z,17.60
2017-11-23T10:16:43.866Z,17.75
2017-11-23T10:17:43.870Z,18.06
2017-11-23T10:18:43.878Z,18.03
2017-11-23T10:19:43.883Z,17.76
2017-11-23T10:20:43.889Z,17.57
2017-11-23T10:21:43.949Z,17.49
2017-11-23T10:22:43.902Z,17.41
2017-11-23T10:23:43.910Z,17.35
2017-11-23T10:24:43.915Z,17.24
2017-11-23T10:25:43.923Z,17.01
2017-11-23T10:26:43.930Z,17.07
2017-11-23T10:27:43.943Z,16.73
2017-11-23T10:28:43.943Z,16.43
2017-11-23T10:29:43.948Z,16.16
2017-11-23T10:30:43.955Z,16.10
2017-11-23T10:31:44.011Z,16.21
2017-11-23T10:32:43.968Z,16.39
2017-11-23T10:33:43.973Z,16.47
2017-11-23T10:34:43.979Z,16.65
2017-11-23T10:35:43.984Z,16.72
2017-11-23T10:36:43.991Z,16.72
2017-11-23T10:37:43.995Z,16.62
2017-11-23T10:38:44.002Z,16.74
2017-11-23T10:39:44.007Z,16.79
2017-11-23T10:40:44.013Z,16.74
2017-11-23T10:41:44.017Z,16.57
2017-11-23T10:42:44.023Z,16.64
2017-11-23T10:43:44.033Z,16.57
2017-11-23T10:44:44.034Z,16.57
2017-11-23T10:45:44.039Z,16.55
2017-11-23T10:46:44.044Z,16.51
2017-11-23T10:47:44.052Z,16.37
2017-11-23T10:48:44.055Z,16.29
2017-11-23T10:49:44.061Z,16.47
2017-11-23T10:50:44.066Z,16.58
2017-11-23T10:51:44.123Z,16.76
2017-11-23T10:52:44.077Z,16.72
2017-11-23T10:53:44.086Z,16.80
2017-11-23T10:54:44.087Z,16.83
2017-11-23T10:55:44.094Z,16.79
2017-11-23T10:56:44.101Z,16.59
2017-11-23T10:57:44.105Z,16.58
2017-11-23T10:58:44.109Z,16.65
2017-11-23T10:59:44.167Z,16.59
2017-11-23T11:00:44.122Z,16.69
2017-11-23T11:01:44.177Z,16.77
2017-11-23T11:02:44.132Z,16.65
2017-11-23T11:03:44.138Z,16.74
2017-11-23T11:04:44.144Z,16.58
2017-11-23T11:05:44.148Z,16.68
2017-11-23T11:06:44.254Z,16.80
2017-11-23T11:07:44.159Z,16.83
2017-11-23T11:08:44.166Z,16.92
2017-11-23T11:09:44.170Z,16.97
2017-11-23T11:10:44.175Z,17.09
2017-11-23T11:11:44.180Z,16.95
2017-11-23T11:12:44.188Z,16.76
2017-11-23T11:13:44.190Z,16.87
2017-11-23T11:14:44.198Z,16.95
2017-11-23T11:15:44.203Z,17.02
2017-11-23T11:16:44.209Z,17.23
2017-11-23T11:17:44.212Z,17.38
2017-11-23T11:18:44.218Z,17.47
2017-11-23T11:19:44.223Z,17.41
2017-11-23T11:20:44.230Z,17.46
2017-11-23T11:21:44.235Z,17.46
2017-11-23T11:22:44.240Z,17.41
2017-11-23T11:23:44.246Z,17.22
2017-11-23T11:24:44.292Z,17.13
2017-11-23T11:25:44.257Z,17.10
2017-11-23T11:26:44.263Z,16.95
2017-11-23T11:27:44.268Z,16.99
2017-11-23T11:28:44.273Z,16.92
2017-11-23T11:29:44.277Z,16.94
2017-11-23T11:30:44.284Z,16.92
2017-11-23T11:31:44.296Z,16.84
2017-11-23T11:32:44.294Z,16.95
2017-11-23T11:33:44.298Z,17.10
2017-11-23T11:34:44.304Z,17.16
2017-11-23T11:35:44.314Z,17.12
2017-11-23T11:36:44.365Z,17.02
2017-11-23T11:37:44.319Z,16.92
2017-11-23T11:38:44.326Z,16.83
2017-11-23T11:39:44.330Z,16.74
2017-11-23T11:40:44.336Z,16.80
2017-11-23T11:41:44.339Z,16.77
2017-11-23T11:42:44.345Z,16.82
2017-11-23T11:43:44.350Z,16.99
2017-11-23T11:44:44.355Z,17.17
2017-11-23T11:45:44.359Z,17.32
2017-11-23T11:46:44.364Z,17.41
2017-11-23T11:47:44.372Z,17.23
2017-11-23T11:48:44.375Z,17.37
2017-11-23T11:49:44.381Z,17.39
2017-11-23T11:50:44.394Z,17.54
2017-11-23T11:51:44.694Z,17.71
2017-11-23T11:52:44.397Z,17.90
2017-11-23T11:53:44.403Z,17.88
2017-11-23T11:54:44.414Z,17.97
2017-11-23T11:55:44.420Z,18.06
2017-11-23T11:56:44.672Z,18.09
2017-11-23T11:57:44.427Z,18.06
2017-11-23T11:58:44.434Z,18.26
2017-11-23T11:59:44.442Z,18.15
2017-11-23T12:00:44.498Z,18.19
2017-11-23T12:01:44.453Z,18.27
2017-11-23T12:02:44.460Z,18.36
2017-11-23T12:03:44.470Z,18.55
2017-11-23T12:04:44.475Z,18.66
2017-11-23T12:05:44.480Z,18.60
2017-11-23T12:06:44.487Z,18.57
2017-11-23T12:07:44.495Z,18.76
2017-11-23T12:08:44.503Z,18.71
2017-11-23T12:09:44.508Z,18.94
2017-11-23T12:10:44.516Z,19.01
2017-11-23T12:11:44.524Z,19.08
2017-11-23T12:12:44.531Z,19.11
2017-11-23T12:13:44.538Z,19.11
2017-11-23T12:14:44.544Z,19.19
2017-11-23T12:15:44.559Z,19.44
2017-11-23T12:16:44.568Z,19.47
2017-11-23T12:17:44.568Z,19.56
2017-11-23T12:18:44.575Z,19.48
2017-11-23T12:19:44.582Z,19.29
2017-11-23T12:20:44.590Z,19.11
2017-11-23T12:21:44.599Z,19.27
2017-11-23T12:22:44.605Z,19.24
2017-11-23T12:23:44.613Z,19.22
2017-11-23T12:24:44.620Z,19.20
2017-11-23T12:25:44.626Z,19.22
2017-11-23T12:26:44.635Z,19.42
2017-11-23T12:27:44.660Z,19.62
2017-11-23T12:28:44.652Z,19.59
2017-11-23T12:29:44.657Z,19.66
2017-11-23T12:30:44.665Z,19.66
2017-11-23T12:31:44.675Z,19.49
2017-11-23T12:32:44.681Z,19.47
2017-11-23T12:33:44.689Z,19.29
2017-11-23T12:34:44.696Z,19.07
2017-11-23T12:35:44.705Z,19.01
2017-11-23T12:36:44.711Z,18.92
2017-11-23T12:37:44.721Z,18.89
2017-11-23T12:38:44.726Z,19.01
2017-11-23T12:39:44.734Z,19.23
2017-11-23T12:40:44.742Z,19.27
2017-11-23T12:41:44.749Z,19.30
2017-11-23T12:42:44.758Z,19.45
2017-11-23T12:43:44.764Z,19.55
2017-11-23T12:44:44.775Z,19.66
2017-11-23T12:45:44.779Z,19.49
2017-11-23T12:46:44.785Z,19.39
2017-11-23T12:47:44.792Z,19.48
2017-11-23T12:48:44.809Z,19.38
2017-11-23T12:49:44.808Z,19.34
2017-11-23T12:50:44.814Z,19.35
2017-11-23T12:51:44.823Z,19.41
2017-11-23T12:52:44.828Z,19.42
2017-11-23T12:53:44.836Z,19.52
2017-11-23T12:54:44.843Z,19.52
2017-11-23T12:55:44.849Z,19.64
2017-11-23T12:56:44.857Z,19.63
2017-11-23T12:57:44.863Z,19.57
2017-11-23T12:58:44.871Z,19.64
2017-11-23T12:59:44.877Z,19.67
2017-11-23T13:00:44.885Z,19.60
2017-11-23T13:01:44.893Z,19.53
2017-11-23T13:02:44.900Z,19.38
2017-11-23T13:03:44.905Z,19.24
2017-11-23T13:04:44.922Z,19.23
2017-11-23T13:05:44.920Z,19.17
2017-11-23T13:06:44.927Z,19.16
2017-11-23T13:07:44.934Z,18.97
2017-11-23T13:08:44.941Z,19.01
2017-11-23T13:09:44.948Z,19.01